Time;durP1;ratioP1;P1;durP2;ratioP2;P2;SDS_P1;SDS_P2;PMS_P1;PMS_P2;Temp;Humidity;BMP_temperature;BMP_pressure;BME280_temperature;BME280_humidity;BME280_pressure;Samples;Min_cycle;Max_cycle;Signal;HPM_P1;HPM_P2
2021/10/04 00:01:32;;;;;;;;;0.67;0.00;;;;;24.24;41.63;101130.59;5074543;28;45405;-67
2021/10/04 00:03:57;;;;;;;;;3.00;1.00;;;;;24.28;41.20;101139.84;5074574;28;45301;-67
2021/10/04 00:06:23;;;;;;;;;0.33;0.00;;;;;24.17;41.25;101128.66;5074826;28;45921;-67
2021/10/04 00:08:48;;;;;;;;;1.00;1.00;;;;;24.25;41.64;101141.00;5076649;28;45288;-68
2021/10/04 00:11:13;;;;;;;;;1.00;1.00;;;;;24.26;41.38;101148.03;5074559;28;46226;-67
2021/10/04 00:13:39;;;;;;;;;1.00;1.00;;;;;24.13;41.51;101127.41;5074563;28;45301;-67
2021/10/04 00:16:04;;;;;;;;;1.00;1.00;;;;;24.23;41.03;101132.41;5072589;28;45581;-67
2021/10/04 00:18:30;;;;;;;;;0.00;0.00;;;;;24.21;41.37;101131.78;5074309;28;45438;-68
2021/10/04 00:20:55;;;;;;;;;0.00;0.00;;;;;24.22;41.17;101132.59;5076488;28;45295;-67
2021/10/04 00:23:21;;;;;;;;;1.00;1.00;;;;;24.25;41.56;101138.34;5074576;28;45481;-68
2021/10/04 00:25:47;;;;;;;;;1.00;1.00;;;;;24.24;41.12;101138.56;5072675;28;45942;-68
2021/10/04 00:28:12;;;;;;;;;1.00;1.00;;;;;24.24;41.20;101131.41;5074184;28;45367;-68
2021/10/04 00:30:37;;;;;;;;;0.00;0.00;;;;;24.25;41.24;101134.91;5074626;28;45504;-69
2021/10/04 00:33:03;;;;;;;;;0.67;0.67;;;;;24.25;41.32;101132.25;5075693;28;45445;-68
2021/10/04 00:35:29;;;;;;;;;0.00;0.00;;;;;24.24;41.01;101134.06;5074441;28;46112;-68
2021/10/04 00:37:55;;;;;;;;;1.00;1.00;;;;;24.23;41.15;101137.72;5074152;28;45385;-69
2021/10/04 00:40:25;;;;;;;;;0.00;0.00;;;;;24.22;41.46;101136.09;5074208;28;45491;-69
2021/10/04 00:42:51;;;;;;;;;0.00;0.00;;;;;24.22;41.47;101138.75;5074365;28;45343;-69
2021/10/04 00:45:17;;;;;;;;;1.00;1.00;;;;;24.22;41.28;101136.09;5074291;28;46296;-68
2021/10/04 00:47:43;;;;;;;;;0.67;0.67;;;;;24.15;41.10;101133.34;5073450;28;45351;-68
2021/10/04 00:50:10;;;;;;;;;1.00;0.00;;;;;24.22;41.29;101146.72;5074141;28;45502;-68
2021/10/04 00:52:36;;;;;;;;;5.33;0.67;;;;;24.22;41.49;101146.72;5074125;28;45453;-68
2021/10/04 00:55:04;;;;;;;;;0.00;0.00;;;;;24.21;40.94;101147.72;5072281;28;46404;-68
2021/10/04 00:57:29;;;;;;;;;1.67;0.00;;;;;24.12;41.12;101132.91;5073544;27;45496;-68
2021/10/04 00:59:55;;;;;;;;;0.00;0.00;;;;;24.22;41.25;101145.91;5075821;28;45434;-68
2021/10/04 01:02:20;;;;;;;;;2.00;1.00;;;;;24.22;41.10;101135.28;5073589;28;45412;-68
2021/10/04 01:04:45;;;;;;;;;2.00;0.00;;;;;24.21;41.43;101141.59;5072243;28;45304;-68
2021/10/04 01:07:11;;;;;;;;;0.00;0.00;;;;;24.22;40.92;101137.94;5073654;28;45338;-68
2021/10/04 01:09:37;;;;;;;;;0.00;0.00;;;;;24.14;41.38;101125.56;5074237;28;45302;-68
2021/10/04 01:12:03;;;;;;;;;1.00;1.00;;;;;24.21;41.55;101134.44;5070336;28;45400;-68
2021/10/04 01:14:29;;;;;;;;;2.33;1.00;;;;;24.20;41.63;101129.31;5073935;28;45286;-68
2021/10/04 01:16:54;;;;;;;;;0.67;0.67;;;;;24.20;41.48;101130.13;5073219;28;45553;-68
2021/10/04 01:19:20;;;;;;;;;1.00;1.00;;;;;24.18;41.03;101129.50;5073907;28;45808;-68
2021/10/04 01:21:45;;;;;;;;;0.00;0.00;;;;;24.19;41.21;101128.50;5073945;28;45288;-68
2021/10/04 01:24:12;;;;;;;;;2.00;0.00;;;;;24.18;41.08;101130.31;5074678;28;46972;-68
2021/10/04 01:26:38;;;;;;;;;0.33;0.33;;;;;24.18;40.83;101132.16;5074794;28;45392;-68
2021/10/04 01:29:04;;;;;;;;;1.75;1.00;;;;;24.18;40.85;101137.47;5073627;28;45693;-68
2021/10/04 01:31:30;;;;;;;;;0.33;0.00;;;;;24.17;41.12;101130.53;5073228;28;45497;-68
2021/10/04 01:33:56;;;;;;;;;0.00;0.00;;;;;24.17;41.11;101136.63;5071830;28;45984;-68
2021/10/04 01:36:27;;;;;;;;;0.67;0.00;;;;;24.17;41.23;101141.16;5073518;28;45324;-68
2021/10/04 01:38:54;;;;;;;;;1.00;1.00;;;;;24.15;41.22;101137.84;5075336;28;45367;-68
2021/10/04 01:41:19;;;;;;;;;2.00;1.00;;;;;24.12;41.17;101138.25;5073294;28;45590;-68
2021/10/04 01:43:45;;;;;;;;;0.00;0.00;;;;;24.16;40.79;101142.16;5071631;28;45990;-68
2021/10/04 01:46:10;;;;;;;;;0.67;0.67;;;;;24.12;41.09;101133.75;5072829;28;45490;-68
2021/10/04 01:48:36;;;;;;;;;2.67;1.00;;;;;24.14;40.89;101134.38;5073709;28;45557;-68
2021/10/04 01:51:02;;;;;;;;;0.67;0.67;;;;;24.16;41.33;101139.50;5075372;28;45362;-68
2021/10/04 01:53:27;;;;;;;;;0.00;0.00;;;;;24.15;41.29;101143.16;5071897;28;46202;-68
2021/10/04 01:55:52;;;;;;;;;2.00;1.00;;;;;24.15;41.08;101143.97;5073079;28;45450;-68
2021/10/04 01:58:18;;;;;;;;;0.00;0.00;;;;;24.16;41.00;101142.16;5073287;28;45718;-68
2021/10/04 02:00:45;;;;;;;;;0.00;0.00;;;;;24.03;41.35;101118.91;5073104;28;45392;-68
2021/10/04 02:03:11;;;;;;;;;2.00;0.33;;;;;24.13;40.97;101140.69;5074201;28;46491;-68
2021/10/04 02:05:36;;;;;;;;;1.00;1.00;;;;;24.14;41.20;101134.38;5073906;28;45470;-68
2021/10/04 02:08:02;;;;;;;;;2.00;0.33;;;;;24.13;41.28;101131.91;5073019;28;45478;-68
2021/10/04 02:10:31;;;;;;;;;2.00;0.67;;;;;24.15;41.06;101135.19;5075322;28;45449;-68
2021/10/04 02:12:59;;;;;;;;;1.00;0.00;;;;;24.13;41.09;101135.38;5074877;28;46934;-68
2021/10/04 02:15:25;;;;;;;;;2.00;2.00;;;;;24.15;41.28;101135.19;5076082;28;45460;-68
2021/10/04 02:17:50;;;;;;;;;1.00;0.00;;;;;24.14;40.64;101142.34;5077557;28;45413;-68
2021/10/04 02:20:19;;;;;;;;;1.00;1.00;;;;;24.14;41.37;101133.56;5074257;28;45500;-68
2021/10/04 02:22:45;;;;;;;;;1.00;1.00;;;;;24.06;41.44;101115.88;5074555;28;46225;-68
2021/10/04 02:25:13;;;;;;;;;0.00;0.00;;;;;24.15;41.32;101140.50;5076100;28;45421;-68
2021/10/04 02:27:39;;;;;;;;;0.00;0.00;;;;;24.14;41.11;101138.88;5076418;28;45556;-68
2021/10/04 02:30:09;;;;;;;;;0.00;0.00;;;;;24.15;41.05;101145.81;5077574;28;45545;-68
2021/10/04 02:32:35;;;;;;;;;1.00;0.33;;;;;24.13;40.79;101147.84;5076717;28;46175;-68
2021/10/04 02:35:00;;;;;;;;;0.00;0.00;;;;;24.14;40.65;101146.84;5076069;28;45463;-68
2021/10/04 02:37:26;;;;;;;;;0.00;0.00;;;;;24.14;41.29;101144.19;5076344;28;45332;-68
2021/10/04 02:39:51;;;;;;;;;0.25;0.00;;;;;24.13;41.26;101150.50;5076414;28;45395;-68
2021/10/04 02:42:17;;;;;;;;;0.00;0.00;;;;;24.07;41.05;101141.47;5076361;28;45372;-68
2021/10/04 02:44:42;;;;;;;;;2.00;0.33;;;;;24.12;41.02;101147.03;5075226;28;45498;-67
2021/10/04 02:47:07;;;;;;;;;1.33;1.33;;;;;24.07;40.47;101142.25;5076046;28;45429;-68
2021/10/04 02:49:33;;;;;;;;;0.00;0.00;;;;;24.13;41.26;101145.19;5075995;28;45367;-68
2021/10/04 02:51:58;;;;;;;;;0.00;0.00;;;;;24.11;41.04;101139.22;5075651;28;45465;-68
2021/10/04 02:54:23;;;;;;;;;1.00;0.00;;;;;24.12;40.87;101143.56;5075881;28;45526;-68
2021/10/04 02:56:49;;;;;;;;;0.00;0.00;;;;;24.11;40.65;101134.75;5078003;28;45368;-68
2021/10/04 02:59:15;;;;;;;;;1.00;1.00;;;;;24.11;41.32;101145.38;5075525;28;45536;-68
2021/10/04 03:01:40;;;;;;;;;0.00;0.00;;;;;24.11;41.23;101136.56;5073872;28;46205;-68
2021/10/04 03:04:07;;;;;;;;;1.00;0.00;;;;;24.02;40.62;101112.75;5075559;28;45379;-68
2021/10/04 03:06:32;;;;;;;;;0.00;0.00;;;;;24.11;41.11;101136.56;5075954;28;45368;-68
2021/10/04 03:08:58;;;;;;;;;0.33;0.33;;;;;24.11;40.72;101131.25;5077689;28;45403;-68
2021/10/04 03:11:23;;;;;;;;;0.00;0.00;;;;;24.04;40.93;101118.75;5075587;28;45534;-68
2021/10/04 03:13:48;;;;;;;;;0.00;0.00;;;;;24.10;40.56;101133.09;5075041;28;45515;-68
2021/10/04 03:16:14;;;;;;;;;0.00;0.00;;;;;24.09;40.71;101131.47;5075552;28;45628;-68
2021/10/04 03:18:39;;;;;;;;;0.00;0.00;;;;;24.06;40.99;101132.66;5075791;28;45343;-68
2021/10/04 03:21:04;;;;;;;;;0.67;0.67;;;;;24.09;40.95;101130.63;5076841;28;45378;-68
2021/10/04 03:23:30;;;;;;;;;0.00;0.00;;;;;24.07;41.04;101134.28;5075816;28;45380;-68
2021/10/04 03:25:55;;;;;;;;;1.00;1.00;;;;;24.05;40.97;101132.81;5075382;28;45479;-68
2021/10/04 03:28:21;;;;;;;;;2.33;0.00;;;;;24.08;41.64;101137.78;5075055;28;45481;-68
2021/10/04 03:30:47;;;;;;;;;0.00;0.00;;;;;24.07;41.21;101141.47;5073790;28;46885;-68
2021/10/04 03:33:12;;;;;;;;;0.00;0.00;;;;;24.04;41.12;101133.84;5075972;28;45374;-68
2021/10/04 03:35:39;;;;;;;;;0.00;0.00;;;;;24.07;40.69;101144.13;5076416;28;45359;-68
2021/10/04 03:38:04;;;;;;;;;1.67;1.00;;;;;24.02;40.75;101136.69;5075194;28;45513;-68
2021/10/04 03:40:29;;;;;;;;;0.00;0.00;;;;;24.07;40.87;101147.56;5075005;28;45920;-68
2021/10/04 03:42:55;;;;;;;;;0.00;0.00;;;;;24.07;40.90;101141.47;5074908;28;45283;-68
2021/10/04 03:45:21;;;;;;;;;0.67;0.67;;;;;24.07;40.94;101155.56;5075246;27;47045;-68
2021/10/04 03:47:46;;;;;;;;;3.00;0.00;;;;;24.06;40.79;101150.44;5076901;28;45435;-68
2021/10/04 03:50:13;;;;;;;;;1.00;0.00;;;;;24.05;40.60;101152.25;5074883;28;47369;-68
2021/10/04 03:52:40;;;;;;;;;1.00;0.00;;;;;24.08;41.26;101159.03;5075010;28;45284;-68
2021/10/04 03:55:07;;;;;;;;;1.00;1.00;;;;;24.07;41.22;101160.06;5075093;28;45470;-69
2021/10/04 03:57:34;;;;;;;;;0.33;0.00;;;;;24.05;41.00;101154.91;5058516;28;45505;-68
2021/10/04 03:59:59;;;;;;;;;0.00;0.00;;;;;24.07;40.95;101165.38;5072169;28;46393;-68
2021/10/04 04:02:24;;;;;;;;;0.00;0.00;;;;;24.07;40.68;101168.03;5074528;28;45403;-68
2021/10/04 04:04:50;;;;;;;;;0.00;0.00;;;;;24.07;40.69;101168.84;5074911;28;45320;-68
2021/10/04 04:07:15;;;;;;;;;1.00;0.00;;;;;23.61;41.11;101104.31;5074908;28;45324;-68
2021/10/04 04:09:40;;;;;;;;;0.00;0.00;;;;;23.96;40.67;101162.19;5057834;28;46990;-68
2021/10/04 04:12:06;;;;;;;;;3.00;0.00;;;;;24.07;40.54;101176.00;5075600;28;45312;-68
2021/10/04 04:14:31;;;;;;;;;0.00;0.00;;;;;24.07;40.51;101173.34;5075279;28;45407;-68
2021/10/04 04:16:57;;;;;;;;;0.00;0.00;;;;;24.01;40.97;101163.47;5074694;28;45194;-68
2021/10/04 04:19:22;;;;;;;;;0.00;0.00;;;;;24.07;40.89;101173.34;5073043;28;45431;-68
2021/10/04 04:21:47;;;;;;;;;2.00;0.00;;;;;24.07;40.80;101170.69;5074368;28;45261;-68
2021/10/04 04:24:17;;;;;;;;;1.00;0.00;;;;;24.07;40.90;101171.50;5075211;28;45385;-68
2021/10/04 04:26:43;;;;;;;;;0.00;0.00;;;;;23.98;40.44;101150.53;5075946;27;45299;-68
2021/10/04 04:29:08;;;;;;;;;0.00;0.00;;;;;23.99;41.03;101152.19;5074120;28;46796;-68
2021/10/04 04:31:34;;;;;;;;;0.00;0.00;;;;;24.06;41.04;101172.53;5073967;28;45579;-68
2021/10/04 04:33:59;;;;;;;;;1.00;0.00;;;;;24.05;40.68;101164.72;5074299;28;45730;-68
2021/10/04 04:36:25;;;;;;;;;0.00;0.00;;;;;24.07;40.69;101171.50;5074311;28;45664;-68
2021/10/04 04:38:50;;;;;;;;;0.67;0.00;;;;;24.08;40.51;101177.66;5076187;28;45261;-68
2021/10/04 04:41:15;;;;;;;;;0.67;0.00;;;;;24.07;40.35;101165.38;5072730;28;45559;-68
2021/10/04 04:43:41;;;;;;;;;0.00;0.00;;;;;24.07;41.06;101176.00;5074122;27;45587;-68
2021/10/04 04:46:06;;;;;;;;;0.00;0.00;;;;;24.06;41.05;101169.88;5074322;28;45242;-68
2021/10/04 04:48:32;;;;;;;;;0.67;0.00;;;;;24.06;40.39;101174.34;5072912;28;46045;-68
2021/10/04 04:50:58;;;;;;;;;0.33;0.33;;;;;24.06;40.75;101174.34;5075684;28;45283;-68
2021/10/04 04:53:23;;;;;;;;;0.00;0.00;;;;;24.06;40.59;101166.38;5074059;28;45351;-68
2021/10/04 04:55:48;;;;;;;;;0.00;0.00;;;;;24.05;40.69;101167.38;5073432;28;45443;-68
2021/10/04 04:58:14;;;;;;;;;0.00;0.00;;;;;24.04;40.77;101171.91;5072293;28;50754;-68
2021/10/04 05:00:39;;;;;;;;;0.00;0.00;;;;;24.06;40.85;101174.34;5073688;28;45627;-68
2021/10/04 05:03:07;;;;;;;;;0.00;0.00;;;;;24.04;40.63;101174.56;5075305;28;45507;-68
2021/10/04 05:05:33;;;;;;;;;0.67;0.00;;;;;23.99;40.45;101166.31;5075242;28;45432;-68
2021/10/04 05:07:58;;;;;;;;;0.00;0.00;;;;;24.04;40.40;101171.91;5073688;28;46199;-68
2021/10/04 05:10:24;;;;;;;;;0.00;0.00;;;;;24.05;40.63;101170.03;5072527;28;45514;-68
2021/10/04 05:12:49;;;;;;;;;0.00;0.00;;;;;24.04;40.41;101177.22;5073997;28;45431;-68
2021/10/04 05:15:14;;;;;;;;;0.00;0.00;;;;;24.04;40.34;101174.56;5074608;28;45322;-68
2021/10/04 05:17:41;;;;;;;;;0.00;0.00;;;;;24.03;40.93;101167.56;5074895;28;47060;-68
2021/10/04 05:20:07;;;;;;;;;0.33;0.33;;;;;24.03;40.78;101166.75;5073669;28;46103;-68
2021/10/04 05:22:35;;;;;;;;;0.00;0.00;;;;;24.00;40.96;101164.47;5073568;28;45395;-68
2021/10/04 05:25:01;;;;;;;;;0.00;0.00;;;;;23.91;40.61;101169.91;5073219;28;45364;-67
2021/10/04 05:27:26;;;;;;;;;0.00;0.00;;;;;24.01;40.67;101174.09;5073047;28;46089;-67
2021/10/04 05:29:51;;;;;;;;;0.00;0.00;;;;;24.00;40.85;101167.94;5074471;28;45378;-67
2021/10/04 05:32:17;;;;;;;;;0.00;0.00;;;;;24.03;40.38;101169.41;5073459;28;45427;-67
2021/10/04 05:34:42;;;;;;;;;1.67;0.00;;;;;24.02;40.34;101170.44;5073457;28;45521;-67
2021/10/04 05:37:08;;;;;;;;;0.00;0.00;;;;;23.95;40.58;101168.50;5071429;28;46225;-67
2021/10/04 05:39:33;;;;;;;;;0.00;0.00;;;;;24.02;40.73;101165.91;5073650;28;45375;-66
2021/10/04 05:41:58;;;;;;;;;0.00;0.00;;;;;24.02;40.85;101165.91;5074566;28;45332;-66
2021/10/04 05:44:24;;;;;;;;;0.00;0.00;;;;;24.03;40.90;101166.75;5073803;28;45427;-67
2021/10/04 05:46:49;;;;;;;;;0.00;0.00;;;;;24.02;41.16;101167.78;5075199;27;47170;-67
2021/10/04 05:49:14;;;;;;;;;0.00;0.00;;;;;24.03;40.85;101169.41;5079265;27;45469;-66
2021/10/04 05:51:40;;;;;;;;;0.00;0.00;;;;;24.01;40.81;101168.78;5078524;27;45600;-67
2021/10/04 05:54:05;;;;;;;;;0.00;0.00;;;;;24.04;41.12;101179.88;5075269;27;45575;-66
2021/10/04 05:56:30;;;;;;;;;0.00;0.00;;;;;24.04;41.32;101174.56;5080405;27;46054;-67
2021/10/04 05:58:56;;;;;;;;;2.00;0.00;;;;;24.03;41.36;101172.06;5075891;28;45246;-67
2021/10/04 06:01:21;;;;;;;;;1.00;0.00;;;;;24.06;41.12;101182.31;5076005;28;45556;-67
2021/10/04 06:03:46;;;;;;;;;1.00;1.00;;;;;24.05;40.74;101175.34;5075957;28;45511;-67
2021/10/04 06:06:12;;;;;;;;;0.00;0.00;;;;;24.04;40.95;101176.38;5076338;28;46603;-67
2021/10/04 06:08:37;;;;;;;;;0.00;0.00;;;;;23.94;41.12;101166.84;5077915;28;45272;-67
2021/10/04 06:11:02;;;;;;;;;1.00;0.00;;;;;24.05;40.82;101183.31;5075564;28;46231;-67
2021/10/04 06:13:28;;;;;;;;;0.00;0.00;;;;;24.04;41.06;101179.03;5076468;28;45259;-68
2021/10/04 06:15:53;;;;;;;;;0.00;0.00;;;;;24.01;41.07;101176.75;5074581;28;45966;-70
2021/10/04 06:18:18;;;;;;;;;0.00;0.00;;;;;24.04;40.68;101182.53;5076499;28;45293;-69
2021/10/04 06:20:45;;;;;;;;;2.00;0.00;;;;;24.05;40.97;101176.19;5078110;28;45657;-70
2021/10/04 06:23:11;;;;;;;;;0.00;0.00;;;;;23.96;40.91;101161.38;5076341;28;45474;-70
2021/10/04 06:25:36;;;;;;;;;0.00;0.00;;;;;24.09;40.88;101174.00;5076053;28;46109;-70
2021/10/04 06:28:02;;;;;;;;;0.33;0.33;;;;;24.11;41.06;101179.94;5076320;28;45474;-70
2021/10/04 06:30:28;;;;;;;;;0.67;0.00;;;;;24.07;40.89;101176.00;5076532;28;45410;-71
2021/10/04 06:32:53;;;;;;;;;1.00;0.33;;;;;24.14;41.10;101190.22;5078143;28;45403;-71
2021/10/04 06:35:19;;;;;;;;;0.33;0.00;;;;;24.13;40.91;101182.41;5075777;28;45977;-71
2021/10/04 06:37:45;;;;;;;;;0.00;0.00;;;;;24.20;40.58;101193.13;5076006;28;45470;-70
2021/10/04 06:40:11;;;;;;;;;0.00;0.00;;;;;24.22;40.76;101193.75;5076445;28;45447;-69
2021/10/04 06:42:36;;;;;;;;;1.00;1.00;;;;;24.18;40.89;101187.97;5076225;28;45371;-70
2021/10/04 06:45:03;;;;;;;;;0.00;0.00;;;;;24.26;40.67;101203.00;5077888;28;45466;-70
2021/10/04 06:47:28;;;;;;;;;2.33;0.00;;;;;24.28;40.92;101201.00;5074434;28;45547;-70
2021/10/04 06:49:54;;;;;;;;;0.00;0.00;;;;;24.31;40.58;101203.28;5075493;28;45418;-70
2021/10/04 06:52:19;;;;;;;;;0.67;0.67;;;;;24.29;40.68;101192.03;5075897;28;45588;-70
2021/10/04 06:54:45;;;;;;;;;0.00;0.00;;;;;24.34;40.38;101200.25;5073995;28;46280;-70
2021/10/04 06:57:11;;;;;;;;;0.00;0.00;;;;;24.36;40.74;101202.72;5076800;28;45336;-71
2021/10/04 06:59:36;;;;;;;;;0.00;0.00;;;;;24.38;40.82;101203.38;5076555;28;45312;-70
2021/10/04 07:02:02;;;;;;;;;0.00;0.00;;;;;24.36;41.07;101213.38;5075755;28;45547;-71
2021/10/04 07:04:28;;;;;;;;;0.00;0.00;;;;;24.44;40.71;101217.75;5075245;28;46535;-71
2021/10/04 07:06:53;;;;;;;;;0.00;0.00;;;;;24.42;40.47;101209.97;5075779;28;45384;-71
2021/10/04 07:09:19;;;;;;;;;1.00;1.00;;;;;24.45;40.58;101214.91;5075927;28;45555;-70
2021/10/04 07:11:44;;;;;;;;;1.33;0.00;;;;;24.49;40.36;101224.16;5077302;28;45385;-70
2021/10/04 07:14:10;;;;;;;;;0.00;0.00;;;;;24.51;40.57;101219.47;5075170;28;47156;-70
2021/10/04 07:16:35;;;;;;;;;0.00;0.00;;;;;24.46;40.45;101221.06;5070477;28;45336;-70
2021/10/04 07:19:03;;;;;;;;;0.00;0.00;;;;;24.55;40.08;101214.59;5075211;28;45643;-70
2021/10/04 07:21:28;;;;;;;;;0.00;0.00;;;;;24.44;40.39;101201.78;5075763;28;45562;-70
2021/10/04 07:23:53;;;;;;;;;0.67;0.00;;;;;24.54;40.12;101222.78;5076995;28;47119;-69
2021/10/04 07:26:19;;;;;;;;;0.00;0.00;;;;;24.60;40.10;101230.81;5073696;28;45254;-71
2021/10/04 07:28:44;;;;;;;;;0.00;0.00;;;;;24.63;40.07;101230.47;5057246;28;45336;-70
2021/10/04 07:31:10;;;;;;;;;0.00;0.00;;;;;24.66;39.71;101233.75;5075175;28;45293;-70
2021/10/04 07:33:35;;;;;;;;;0.00;0.00;;;;;24.67;39.58;101241.53;5073226;28;46325;-70
2021/10/04 07:36:02;;;;;;;;;0.00;0.00;;;;;24.69;39.62;101238.69;5077218;28;45938;-70
2021/10/04 07:38:27;;;;;;;;;0.00;0.00;;;;;24.72;39.77;101243.66;5073636;28;45477;-69
2021/10/04 07:40:54;;;;;;;;;1.00;1.00;;;;;24.70;39.58;101237.66;5074642;28;45498;-69
2021/10/04 07:43:19;;;;;;;;;1.00;1.00;;;;;24.68;39.85;101237.88;5075096;28;46165;-68
2021/10/04 07:45:44;;;;;;;;;0.67;0.67;;;;;24.71;39.55;101244.66;5074874;28;45489;-70
2021/10/04 07:48:10;;;;;;;;;0.00;0.00;;;;;24.70;39.92;101251.78;5076317;28;45423;-71
2021/10/04 07:50:35;;;;;;;;;2.00;0.00;;;;;24.65;39.62;101242.72;5075568;28;45368;-71
2021/10/04 07:53:01;;;;;;;;;0.00;0.00;;;;;24.74;39.87;101260.25;5074895;28;46246;-70
2021/10/04 07:55:26;;;;;;;;;0.00;0.00;;;;;24.70;40.03;101250.97;5075059;28;45313;-70
2021/10/04 07:57:51;;;;;;;;;0.00;0.00;;;;;24.66;39.68;101247.03;5075085;28;45234;-70
2021/10/04 08:00:19;;;;;;;;;0.00;0.00;;;;;24.72;40.08;101265.72;5075186;28;45362;-70
2021/10/04 08:02:45;;;;;;;;;0.00;0.00;;;;;24.76;39.56;101263.53;5074092;28;46197;-69
2021/10/04 08:05:11;;;;;;;;;0.00;0.00;;;;;24.74;39.65;101261.06;5073031;28;45490;-69
2021/10/04 08:07:37;;;;;;;;;0.00;0.00;;;;;24.78;39.88;101269.47;5073701;28;45383;-69
2021/10/04 08:10:04;;;;;;;;;0.00;0.00;;;;;24.79;39.88;101272.97;5074807;28;45549;-70
2021/10/04 08:12:30;;;;;;;;;2.00;0.00;;;;;24.80;39.78;101275.44;5073636;28;46200;-70
2021/10/04 08:14:55;;;;;;;;;0.00;0.00;;;;;24.79;40.01;101273.81;5075785;28;45365;-70
2021/10/04 08:17:22;;;;;;;;;0.00;0.00;;;;;24.79;39.59;101275.63;5072248;28;45527;-70
2021/10/04 08:19:49;;;;;;;;;0.67;0.00;;;;;24.69;39.57;101262.63;5073988;27;45345;-70
2021/10/04 08:22:14;;;;;;;;;0.00;0.00;;;;;24.73;39.58;101266.56;5074575;28;45713;-69
2021/10/04 08:24:40;;;;;;;;;0.33;0.00;;;;;24.72;39.72;101276.38;5073331;28;45474;-70
2021/10/04 08:27:05;;;;;;;;;0.00;0.00;;;;;24.70;39.50;101275.75;5076232;28;45529;-70
2021/10/04 08:29:31;;;;;;;;;0.00;0.00;;;;;24.69;39.83;101275.94;5074945;28;45585;-70
2021/10/04 08:31:56;;;;;;;;;0.00;0.00;;;;;24.68;39.72;101282.25;5074190;28;45427;-70
2021/10/04 08:34:21;;;;;;;;;0.67;0.67;;;;;24.68;39.93;101284.94;5056365;28;46008;-70
2021/10/04 08:36:47;;;;;;;;;1.00;1.00;;;;;24.69;39.48;101294.56;5074518;28;45516;-70
2021/10/04 08:39:12;;;;;;;;;0.00;0.00;;;;;24.70;39.74;101289.03;5075451;28;45446;-69
2021/10/04 08:41:38;;;;;;;;;1.67;0.00;;;;;24.63;39.83;101272.19;5075082;28;45407;-70
2021/10/04 08:44:07;;;;;;;;;1.00;0.00;;;;;24.66;39.77;101269.16;5072513;28;45412;-70
2021/10/04 08:46:38;;;;;;;;;0.00;0.00;;;;;24.77;39.69;101288.31;5073940;28;45455;-70
2021/10/04 08:49:05;;;;;;;;;2.00;0.33;;;;;24.79;39.50;101283.63;5074115;28;45293;-70
2021/10/04 08:51:30;;;;;;;;;0.00;0.00;;;;;24.82;39.64;101285.91;5072997;28;46186;-70
2021/10/04 08:53:56;;;;;;;;;1.67;0.00;;;;;24.71;39.84;101263.28;5075563;28;45293;-69
2021/10/04 08:56:21;;;;;;;;;1.67;0.67;;;;;24.74;39.74;101266.38;5073828;27;45284;-70
2021/10/04 08:58:46;;;;;;;;;0.00;0.00;;;;;24.84;39.91;101287.38;5074034;28;45324;-69
2021/10/04 09:01:11;;;;;;;;;0.00;0.00;;;;;24.83;39.35;101288.38;5073445;28;45653;-69
2021/10/04 09:03:58;;;;;;;;;0.00;0.00;;;;;24.81;39.28;101282.41;5073417;28;45589;-70
2021/10/04 09:06:29;;;;;;;;;2.00;1.00;;;;;24.83;39.56;101279.56;5074150;28;45337;-70
2021/10/04 09:09:01;;;;;;;;;0.00;0.00;;;;;24.81;39.34;101279.75;5075751;28;45423;-70
2021/10/04 09:11:35;;;;;;;;;0.67;0.00;;;;;24.79;39.84;101279.13;5073619;28;47223;-70
2021/10/04 09:14:11;;;;;;;;;2.00;1.00;;;;;24.80;39.53;101282.63;5073623;28;45442;-69
2021/10/04 09:16:55;;;;;;;;;0.00;0.00;;;;;24.80;39.64;101280.75;5073551;28;45289;-70
2021/10/04 09:19:26;;;;;;;;;1.00;1.00;;;;;24.82;39.79;101281.41;5076063;28;45467;-69
2021/10/04 09:22:10;;;;;;;;;0.00;0.00;;;;;24.83;39.92;101271.56;5075759;28;46253;-70
2021/10/04 09:24:43;;;;;;;;;2.00;0.00;;;;;24.86;39.39;101276.53;5061387;28;45318;-70
2021/10/04 09:27:27;;;;;;;;;1.33;1.33;;;;;24.85;39.58;101267.72;5078352;28;45379;-69
2021/10/04 09:29:54;;;;;;;;;1.00;0.00;;;;;24.88;39.78;101268.38;5078899;28;45410;-70
2021/10/04 09:32:29;;;;;;;;;0.67;0.67;;;;;24.88;39.68;101266.50;5075402;28;47203;-70
2021/10/04 09:35:09;;;;;;;;;0.00;0.00;;;;;24.90;39.54;101266.34;5076497;27;45797;-70
2021/10/04 09:37:35;;;;;;;;;1.00;0.00;;;;;24.89;39.74;101273.50;5077009;28;45469;-70
2021/10/04 09:40:02;;;;;;;;;0.00;0.00;;;;;24.89;39.81;101264.66;5077107;28;45453;-70
2021/10/04 09:42:27;;;;;;;;;1.00;0.00;;;;;24.82;39.35;101261.97;5077068;28;46876;-70
2021/10/04 09:44:57;;;;;;;;;0.00;0.00;;;;;24.87;39.83;101264.88;5078350;28;45378;-70
2021/10/04 09:47:24;;;;;;;;;1.00;0.00;;;;;24.87;39.31;101269.38;5077150;28;45226;-70
2021/10/04 09:49:56;;;;;;;;;0.00;0.00;;;;;24.87;39.85;101269.38;5076821;28;45592;-70
2021/10/04 09:52:36;;;;;;;;;1.67;0.67;;;;;24.84;39.45;101273.22;5076817;28;45917;-70
2021/10/04 09:55:12;;;;;;;;;2.00;1.00;;;;;24.79;39.58;101255.19;5076779;28;45725;-70
2021/10/04 09:57:38;;;;;;;;;0.33;0.33;;;;;24.83;39.40;101274.22;5061116;28;45400;-70
2021/10/04 10:00:03;;;;;;;;;0.00;0.00;;;;;24.74;39.38;101263.72;5078333;28;45379;-70
2021/10/04 10:02:30;;;;;;;;;0.33;0.00;;;;;24.76;39.34;101266.19;5076482;28;46127;-70
2021/10/04 10:04:55;;;;;;;;;1.33;1.33;;;;;24.82;39.59;101268.09;5076014;28;45287;-70
2021/10/04 10:07:21;;;;;;;;;0.00;0.00;;;;;24.82;39.37;101267.28;5076686;28;45630;-69
2021/10/04 10:09:46;;;;;;;;;0.00;0.00;;;;;24.82;39.50;101260.13;5090986;27;45661;-70
2021/10/04 10:12:12;;;;;;;;;0.00;0.00;;;;;24.73;39.39;101253.25;5076201;28;46258;-70
2021/10/04 10:14:49;;;;;;;;;0.00;0.00;;;;;24.83;39.54;101261.75;5077100;28;45361;-70
2021/10/04 10:17:22;;;;;;;;;0.00;0.00;;;;;24.54;39.60;101204.16;5059559;28;45384;-70
2021/10/04 10:19:51;;;;;;;;;1.00;0.00;;;;;24.83;39.50;101258.25;5076526;28;45427;-70
2021/10/04 10:22:18;;;;;;;;;1.00;0.00;;;;;24.83;39.82;101250.28;5076049;28;47327;-69
2021/10/04 10:24:45;;;;;;;;;0.00;0.00;;;;;24.83;39.54;101248.44;5076338;28;45427;-70
2021/10/04 10:27:12;;;;;;;;;0.00;0.00;;;;;24.84;39.57;101250.09;5077653;27;45358;-70
2021/10/04 10:29:38;;;;;;;;;1.00;0.00;;;;;24.85;39.64;101246.41;5076724;28;45313;-69
2021/10/04 10:32:12;;;;;;;;;0.00;0.00;;;;;24.85;39.23;101249.06;5075657;28;47346;-69
2021/10/04 10:34:39;;;;;;;;;0.00;0.00;;;;;24.85;39.71;101253.59;5076371;28;45514;-69
2021/10/04 10:37:08;;;;;;;;;1.00;0.00;;;;;24.85;39.17;101250.94;5076258;28;45432;-70
2021/10/04 10:39:34;;;;;;;;;2.00;0.00;;;;;24.85;39.39;101253.59;5058063;28;45619;-70
2021/10/04 10:42:10;;;;;;;;;0.00;0.00;;;;;24.56;39.70;101213.59;5073075;28;47308;-69
2021/10/04 10:44:55;;;;;;;;;0.00;0.00;;;;;24.85;39.63;101251.75;5076706;28;45285;-70
2021/10/04 10:47:33;;;;;;;;;0.00;0.00;;;;;24.85;39.64;101246.41;5076029;28;45270;-70
2021/10/04 10:50:26;;;;;;;;;0.00;0.00;;;;;24.80;39.34;101234.72;5074372;28;45533;-70
2021/10/04 10:52:57;;;;;;;;;0.00;0.00;;;;;24.83;39.28;101245.78;5075734;28;47217;-70
2021/10/04 10:55:22;;;;;;;;;0.00;0.00;;;;;24.83;39.58;101245.78;5075861;28;45645;-69
2021/10/04 10:57:47;;;;;;;;;0.33;0.00;;;;;24.82;39.51;101241.50;5075667;28;45493;-70
2021/10/04 11:00:19;;;;;;;;;0.33;0.00;;;;;24.81;39.36;101245.16;5076625;28;45466;-70
2021/10/04 11:02:52;;;;;;;;;0.00;0.00;;;;;24.81;39.63;101253.13;5075282;28;46365;-70
2021/10/04 11:05:39;;;;;;;;;0.00;0.00;;;;;24.80;39.20;101238.19;5075608;28;45559;-70
2021/10/04 11:08:13;;;;;;;;;0.00;0.00;;;;;24.79;39.60;101231.22;5074307;28;45449;-70
2021/10/04 11:10:59;;;;;;;;;0.00;0.00;;;;;24.78;39.72;101239.38;5075239;28;45479;-69
2021/10/04 11:13:27;;;;;;;;;0.00;0.00;;;;;24.76;39.70;101239.59;5067789;28;46987;-70
2021/10/04 11:15:58;;;;;;;;;0.00;0.00;;;;;24.76;39.41;101230.78;5075546;28;45488;-69
2021/10/04 11:18:24;;;;;;;;;0.67;0.00;;;;;24.75;39.57;101232.59;5056767;28;45376;-70
2021/10/04 11:21:02;;;;;;;;;0.00;0.00;;;;;24.74;39.45;101237.13;5076163;28;45400;-69
2021/10/04 11:23:27;;;;;;;;;0.00;0.00;;;;;24.73;39.43;101232.81;5075223;28;47215;-70